Time;durP1;ratioP1;P1;durP2;ratioP2;P2;SDS_P1;SDS_P2;PMS_P1;PMS_P2;Temp;Humidity;BMP_temperature;BMP_pressure;BME280_temperature;BME280_humidity;BME280_pressure;Samples;Min_cycle;Max_cycle;Signal;HPM_P1;HPM_P2
2022/11/02 00:01:48;;;;;;;;;;;7.90;99.90;;;;;;5093685;28;19951;-76
2022/11/02 00:04:14;;;;;;;;;;;7.90;99.90;;;;;;5093390;28;19908;-76
2022/11/02 00:06:40;;;;;;;;;;;7.90;99.90;;;;;;5092761;28;20081;-76
2022/11/02 00:09:05;;;;;;;;;;;8.00;99.90;;;;;;5093659;28;19947;-76
2022/11/02 00:11:31;;;;;;;;;;;8.00;99.90;;;;;;5093581;28;19908;-75
2022/11/02 00:13:56;;;;;;;;;;;8.00;99.90;;;;;;5093861;28;20001;-76
2022/11/02 00:16:24;;;;;;;;;;;8.00;99.90;;;;;;5093351;28;19915;-76
2022/11/02 00:18:51;;;;;;;;;;;8.10;99.90;;;;;;5092692;28;19943;-76
2022/11/02 00:21:17;;;;;;;;;;;8.10;99.90;;;;;;5093741;28;19912;-76
2022/11/02 00:23:43;;;;;;;;;;;8.10;99.90;;;;;;5091993;28;20429;-76
2022/11/02 00:26:09;;;;;;;;;;;8.10;99.90;;;;;;5093907;28;19935;-76
2022/11/02 00:28:34;;;;;;;;;;;8.00;99.90;;;;;;5093093;28;19916;-76
2022/11/02 00:31:00;;;;;;;;;;;8.00;99.90;;;;;;5094106;28;19915;-76
2022/11/02 00:33:25;;;;;;;;;;;8.00;99.90;;;;;;5092890;28;20350;-76
2022/11/02 00:35:52;;;;;;;;;;;8.00;99.90;;;;;;5093393;28;20303;-76
2022/11/02 00:38:17;;;;;;;;;;;8.00;99.90;;;;;;5093933;28;19934;-76
2022/11/02 00:40:43;;;;;;;;;;;8.00;99.90;;;;;;5094326;28;19920;-75
2022/11/02 00:43:08;;;;;;;;;;;8.00;99.90;;;;;;5093872;28;20000;-75
2022/11/02 00:45:34;;;;;;;;;;;8.10;99.90;;;;;;5092762;28;19959;-75
2022/11/02 00:48:00;;;;;;;;;;;8.10;99.90;;;;;;5091773;28;20376;-75
2022/11/02 00:50:25;;;;;;;;;;;8.10;99.90;;;;;;5091352;28;20049;-76
2022/11/02 00:52:51;;;;;;;;;;;8.10;99.90;;;;;;5093293;28;19915;-75
2022/11/02 00:55:17;;;;;;;;;;;8.00;99.90;;;;;;5093065;28;19908;-75
2022/11/02 00:57:43;;;;;;;;;;;8.00;99.90;;;;;;5092581;28;20367;-75
2022/11/02 01:00:09;;;;;;;;;;;8.00;99.90;;;;;;5093330;28;19998;-75
2022/11/02 01:02:35;;;;;;;;;;;8.00;99.90;;;;;;5092706;28;19914;-75
2022/11/02 01:05:01;;;;;;;;;;;8.00;99.90;;;;;;5093218;28;19908;-74
2022/11/02 01:07:27;;;;;;;;;;;7.90;99.90;;;;;;5092578;28;19916;-74
2022/11/02 01:09:53;;;;;;;;;;;8.00;99.90;;;;;;5093250;28;19918;-75
2022/11/02 01:12:18;;;;;;;;;;;8.00;99.90;;;;;;5092908;28;19908;-75
2022/11/02 01:14:47;;;;;;;;;;;8.00;99.90;;;;;;5091026;28;19905;-75
2022/11/02 01:17:13;;;;;;;;;;;8.00;99.90;;;;;;5093289;28;19908;-75
2022/11/02 01:19:39;;;;;;;;;;;8.00;99.90;;;;;;5092504;28;19951;-75
2022/11/02 01:22:05;;;;;;;;;;;8.10;99.90;;;;;;5093122;28;19931;-76
2022/11/02 01:24:30;;;;;;;;;;;8.10;99.90;;;;;;5092569;28;19908;-76
2022/11/02 01:26:56;;;;;;;;;;;8.10;99.90;;;;;;5094176;28;19912;-76
2022/11/02 01:29:21;;;;;;;;;;;8.10;99.90;;;;;;5095946;28;20385;-74
2022/11/02 01:31:47;;;;;;;;;;;8.10;99.90;;;;;;5096204;28;19988;-76
2022/11/02 01:34:13;;;;;;;;;;;8.20;99.90;;;;;;5097096;28;19908;-76
2022/11/02 01:36:38;;;;;;;;;;;8.10;99.90;;;;;;5096504;28;20349;-76
2022/11/02 01:39:04;;;;;;;;;;;8.10;99.90;;;;;;5096431;28;20380;-76
2022/11/02 01:41:29;;;;;;;;;;;8.10;99.90;;;;;;5096366;28;19947;-76
2022/11/02 01:43:57;;;;;;;;;;;8.10;99.90;;;;;;5096612;28;19909;-76
2022/11/02 01:46:33;;;;;;;;;;;8.10;99.90;;;;;;5096883;28;19908;-76
2022/11/02 01:49:04;;;;;;;;;;;7.90;99.90;;;;;;5096511;28;19973;-75
2022/11/02 01:51:32;;;;;;;;;;;7.90;99.90;;;;;;5095617;28;20315;-75
2022/11/02 01:54:01;;;;;;;;;;;7.90;99.90;;;;;;5095723;28;19909;-75
2022/11/02 01:56:30;;;;;;;;;;;7.90;99.90;;;;;;5096300;28;19912;-75
2022/11/02 01:58:57;;;;;;;;;;;7.90;99.90;;;;;;5096718;28;19908;-74
2022/11/02 02:01:22;;;;;;;;;;;7.90;99.90;;;;;;5096350;28;19908;-74
2022/11/02 02:03:49;;;;;;;;;;;7.90;99.90;;;;;;5095983;28;19919;-74
2022/11/02 02:06:16;;;;;;;;;;;7.90;99.90;;;;;;5095805;28;19908;-74
2022/11/02 02:08:44;;;;;;;;;;;7.90;99.90;;;;;;5095557;28;19926;-76
2022/11/02 02:11:27;;;;;;;;;;;7.90;99.90;;;;;;5096463;28;19908;-74
2022/11/02 02:13:54;;;;;;;;;;;7.90;99.90;;;;;;5095567;28;19908;-75
2022/11/02 02:16:25;;;;;;;;;;;7.90;99.90;;;;;;5094970;28;20377;-76
2022/11/02 02:18:56;;;;;;;;;;;7.90;99.90;;;;;;5095724;28;19908;-74
2022/11/02 02:21:31;;;;;;;;;;;7.90;99.90;;;;;;5095877;28;20416;-75
2022/11/02 02:23:56;;;;;;;;;;;7.90;99.90;;;;;;5094991;28;19961;-74
2022/11/02 02:26:34;;;;;;;;;;;7.90;99.90;;;;;;5096223;28;19912;-75
2022/11/02 02:29:08;;;;;;;;;;;7.80;99.90;;;;;;5095909;28;19969;-75
2022/11/02 02:31:54;;;;;;;;;;;7.90;99.90;;;;;;5095607;28;19912;-75
2022/11/02 02:34:23;;;;;;;;;;;7.90;99.90;;;;;;5095903;28;20288;-75
2022/11/02 02:36:51;;;;;;;;;;;8.00;99.90;;;;;;5095254;28;20213;-74
2022/11/02 02:39:24;;;;;;;;;;;8.00;99.90;;;;;;5096099;28;19931;-76
2022/11/02 02:41:56;;;;;;;;;;;8.00;99.90;;;;;;5095343;28;20543;-75
2022/11/02 02:44:22;;;;;;;;;;;8.00;99.90;;;;;;5094561;28;20368;-76
2022/11/02 02:46:56;;;;;;;;;;;7.90;99.90;;;;;;5093696;28;20403;-75
2022/11/02 02:49:27;;;;;;;;;;;7.90;99.90;;;;;;5095380;28;19929;-75
2022/11/02 02:51:54;;;;;;;;;;;7.90;99.90;;;;;;5094887;28;19940;-75
2022/11/02 02:54:27;;;;;;;;;;;7.90;99.90;;;;;;5095445;28;20314;-75
2022/11/02 02:56:55;;;;;;;;;;;7.90;99.90;;;;;;5095092;28;19908;-76
2022/11/02 02:59:41;;;;;;;;;;;7.90;99.90;;;;;;5095908;28;19969;-76
2022/11/02 03:02:11;;;;;;;;;;;7.90;99.90;;;;;;5095271;28;19908;-76
2022/11/02 03:04:36;;;;;;;;;;;8.00;99.90;;;;;;5094925;28;20284;-75
2022/11/02 03:07:02;;;;;;;;;;;8.00;99.90;;;;;;5095435;28;19917;-74
2022/11/02 03:09:31;;;;;;;;;;;8.00;99.90;;;;;;5095701;28;20261;-75
2022/11/02 03:12:00;;;;;;;;;;;8.00;99.90;;;;;;5095135;28;19908;-75
2022/11/02 03:14:37;;;;;;;;;;;8.00;99.90;;;;;;5095177;28;20353;-76
2022/11/02 03:17:08;;;;;;;;;;;8.00;99.90;;;;;;5095336;28;19908;-75
2022/11/02 03:19:34;;;;;;;;;;;8.10;99.90;;;;;;5094676;28;19912;-74
2022/11/02 03:22:26;;;;;;;;;;;8.10;99.90;;;;;;5095149;28;19908;-76
2022/11/02 03:24:56;;;;;;;;;;;8.10;99.90;;;;;;5092458;28;19912;-76
2022/11/02 03:27:27;;;;;;;;;;;8.10;99.90;;;;;;5094605;28;20292;-76
2022/11/02 03:29:53;;;;;;;;;;;8.10;99.90;;;;;;5092994;28;20505;-76
2022/11/02 03:32:19;;;;;;;;;;;8.10;99.90;;;;;;5094672;28;20011;-75
2022/11/02 03:34:47;;;;;;;;;;;8.10;99.90;;;;;;5093890;28;20003;-76
2022/11/02 03:37:32;;;;;;;;;;;8.10;99.90;;;;;;5094805;28;19912;-76
2022/11/02 03:40:05;;;;;;;;;;;8.20;99.90;;;;;;5094293;28;19962;-76
2022/11/02 03:42:32;;;;;;;;;;;8.20;99.90;;;;;;5094753;28;19908;-76
2022/11/02 03:45:01;;;;;;;;;;;8.20;99.90;;;;;;5094083;28;19908;-76
2022/11/02 03:47:29;;;;;;;;;;;8.20;99.90;;;;;;5094188;28;19927;-76
2022/11/02 03:49:56;;;;;;;;;;;8.20;99.90;;;;;;5093162;28;19928;-76
2022/11/02 03:52:23;;;;;;;;;;;8.30;99.90;;;;;;5094601;28;19912;-75
2022/11/02 03:54:58;;;;;;;;;;;8.30;99.90;;;;;;5094043;28;20336;-75
2022/11/02 03:57:27;;;;;;;;;;;8.30;99.90;;;;;;5093438;28;19912;-75
2022/11/02 04:00:04;;;;;;;;;;;8.30;99.90;;;;;;5093767;28;19908;-76
2022/11/02 04:02:30;;;;;;;;;;;8.30;99.90;;;;;;5093946;28;19916;-75
2022/11/02 04:04:56;;;;;;;;;;;8.30;99.90;;;;;;5093789;28;20036;-76
2022/11/02 04:07:24;;;;;;;;;;;8.30;99.90;;;;;;5094180;28;19922;-76
2022/11/02 04:09:50;;;;;;;;;;;8.30;99.90;;;;;;5093433;28;19908;-76
2022/11/02 04:15:00;;;;;;;;;;;8.40;99.90;;;;;;5093260;28;19915;-76
2022/11/02 04:20:10;;;;;;;;;;;8.50;99.90;;;;;;5093634;28;19915;-75
2022/11/02 04:25:20;;;;;;;;;;;8.50;99.90;;;;;;5093660;28;19962;-76
2022/11/02 04:27:49;;;;;;;;;;;8.50;99.90;;;;;;5092951;28;19951;-76
2022/11/02 04:30:16;;;;;;;;;;;8.60;99.90;;;;;;5093624;28;19914;-76
2022/11/02 04:35:27;;;;;;;;;;;8.60;99.90;;;;;;5093880;28;19961;-75
2022/11/02 04:40:37;;;;;;;;;;;8.60;99.90;;;;;;5093479;28;20319;-75
2022/11/02 04:43:02;;;;;;;;;;;8.70;99.90;;;;;;5093660;28;19909;-75
2022/11/02 04:45:28;;;;;;;;;;;8.70;99.90;;;;;;5093862;28;19961;-75
2022/11/02 04:48:04;;;;;;;;;;;8.80;99.90;;;;;;5092968;28;19923;-75
2022/11/02 04:50:30;;;;;;;;;;;8.90;99.90;;;;;;5093594;28;19989;-75
2022/11/02 04:52:56;;;;;;;;;;;9.00;99.90;;;;;;5092857;28;20349;-75
2022/11/02 04:55:22;;;;;;;;;;;9.00;99.90;;;;;;5093414;28;19908;-75
2022/11/02 04:57:47;;;;;;;;;;;9.10;99.90;;;;;;5092835;28;20384;-75
2022/11/02 05:00:14;;;;;;;;;;;9.10;99.90;;;;;;5091983;28;19916;-75
2022/11/02 05:02:39;;;;;;;;;;;9.20;99.90;;;;;;5091862;28;19915;-75
2022/11/02 05:05:05;;;;;;;;;;;9.30;99.90;;;;;;5093173;28;19908;-75
2022/11/02 05:07:31;;;;;;;;;;;9.40;99.90;;;;;;5093167;28;20054;-75
2022/11/02 05:09:56;;;;;;;;;;;9.50;99.90;;;;;;5092167;28;19915;-75
2022/11/02 05:12:22;;;;;;;;;;;9.50;99.90;;;;;;5093187;28;19912;-75
2022/11/02 05:14:47;;;;;;;;;;;9.50;99.90;;;;;;5092332;28;19915;-75
2022/11/02 05:17:15;;;;;;;;;;;9.60;99.90;;;;;;5092979;28;19958;-76
2022/11/02 05:19:40;;;;;;;;;;;9.50;99.90;;;;;;5091226;28;19908;-75
2022/11/02 05:22:06;;;;;;;;;;;9.60;99.90;;;;;;5092949;28;19915;-75
2022/11/02 05:24:32;;;;;;;;;;;9.70;99.90;;;;;;5093398;28;20242;-76
2022/11/02 05:26:59;;;;;;;;;;;9.70;99.90;;;;;;5092493;28;19923;-76
2022/11/02 05:29:25;;;;;;;;;;;9.70;99.90;;;;;;5092686;28;20270;-76
2022/11/02 05:31:50;;;;;;;;;;;9.70;99.90;;;;;;5092545;28;19914;-76
2022/11/02 05:34:16;;;;;;;;;;;9.80;99.90;;;;;;5093383;28;19998;-76
2022/11/02 05:36:42;;;;;;;;;;;9.80;99.90;;;;;;5091738;28;20353;-76
2022/11/02 05:39:07;;;;;;;;;;;9.90;99.90;;;;;;5092422;28;19908;-76
2022/11/02 05:41:33;;;;;;;;;;;9.90;99.90;;;;;;5092581;28;19916;-76
2022/11/02 05:43:58;;;;;;;;;;;9.90;99.90;;;;;;5092618;28;20262;-77
2022/11/02 05:46:24;;;;;;;;;;;9.90;99.90;;;;;;5092790;28;20061;-77
2022/11/02 05:48:50;;;;;;;;;;;9.90;99.90;;;;;;5092058;28;19916;-77
2022/11/02 05:51:15;;;;;;;;;;;9.90;99.90;;;;;;5092871;28;19954;-78
2022/11/02 05:53:41;;;;;;;;;;;9.90;99.90;;;;;;5092786;28;19916;-79
2022/11/02 05:56:08;;;;;;;;;;;9.90;99.90;;;;;;5092562;28;20337;-79
2022/11/02 05:58:34;;;;;;;;;;;9.90;99.90;;;;;;5092908;28;19957;-81
2022/11/02 06:01:04;;;;;;;;;;;9.80;99.90;;;;;;5092196;28;19908;-83
2022/11/02 06:03:30;;;;;;;;;;;9.80;99.90;;;;;;5092657;28;20357;-82
2022/11/02 06:06:04;;;;;;;;;;;9.70;99.90;;;;;;5090864;28;19908;-79
2022/11/02 06:08:36;;;;;;;;;;;9.70;99.90;;;;;;5092546;28;19919;-77
2022/11/02 06:11:05;;;;;;;;;;;9.60;99.90;;;;;;5091995;28;20342;-76
2022/11/02 06:13:31;;;;;;;;;;;9.60;99.90;;;;;;5093466;28;19915;-75
2022/11/02 06:16:00;;;;;;;;;;;9.60;99.90;;;;;;5095674;28;19909;-77
2022/11/02 06:18:26;;;;;;;;;;;9.60;99.90;;;;;;5096183;28;19915;-76
2022/11/02 06:20:51;;;;;;;;;;;9.60;99.90;;;;;;5095352;28;19908;-75
2022/11/02 06:23:17;;;;;;;;;;;9.60;99.90;;;;;;5095108;28;20383;-76
2022/11/02 06:25:48;;;;;;;;;;;9.60;99.90;;;;;;5096068;28;19908;-77
2022/11/02 06:28:14;;;;;;;;;;;9.60;99.90;;;;;;5095906;28;19916;-76
2022/11/02 06:30:41;;;;;;;;;;;9.70;99.90;;;;;;5095790;28;19912;-77
2022/11/02 06:33:06;;;;;;;;;;;9.70;99.90;;;;;;5095030;28;20347;-76
2022/11/02 06:35:32;;;;;;;;;;;9.80;99.90;;;;;;5095981;28;19916;-76
2022/11/02 06:37:58;;;;;;;;;;;9.80;99.90;;;;;;5095005;28;20456;-76
2022/11/02 06:40:23;;;;;;;;;;;9.90;99.90;;;;;;5095545;28;19912;-76
2022/11/02 06:42:53;;;;;;;;;;;10.00;99.90;;;;;;5095027;28;19915;-76
2022/11/02 06:45:19;;;;;;;;;;;10.10;99.90;;;;;;5095564;28;19908;-76
2022/11/02 06:47:47;;;;;;;;;;;10.20;99.90;;;;;;5095425;28;19912;-76
2022/11/02 06:50:12;;;;;;;;;;;10.30;99.90;;;;;;5095131;28;19920;-76
2022/11/02 06:52:42;;;;;;;;;;;10.40;99.90;;;;;;5095737;28;19912;-76
2022/11/02 06:55:07;;;;;;;;;;;10.40;99.90;;;;;;5095205;28;19904;-76
2022/11/02 06:57:36;;;;;;;;;;;10.50;99.90;;;;;;5094204;28;19919;-77
2022/11/02 07:00:06;;;;;;;;;;;10.50;99.90;;;;;;5095035;28;19908;-76
2022/11/02 07:02:31;;;;;;;;;;;10.60;99.90;;;;;;5095315;28;19909;-77
2022/11/02 07:04:57;;;;;;;;;;;10.70;99.90;;;;;;5094672;28;20245;-77
2022/11/02 07:07:22;;;;;;;;;;;10.70;99.90;;;;;;5095288;28;19923;-77
2022/11/02 07:09:48;;;;;;;;;;;10.80;99.90;;;;;;5095140;28;20242;-77
2022/11/02 07:12:14;;;;;;;;;;;10.90;99.90;;;;;;5093616;28;20013;-76
2022/11/02 07:14:39;;;;;;;;;;;10.90;99.90;;;;;;5095217;28;19909;-77
2022/11/02 07:17:05;;;;;;;;;;;11.00;99.90;;;;;;5094261;28;19962;-76
2022/11/02 07:19:30;;;;;;;;;;;10.90;99.90;;;;;;5095104;28;19916;-75
2022/11/02 07:21:56;;;;;;;;;;;11.00;99.90;;;;;;5094283;28;19955;-75
2022/11/02 07:24:22;;;;;;;;;;;11.00;99.90;;;;;;5093018;28;19908;-75
2022/11/02 07:26:48;;;;;;;;;;;11.10;99.90;;;;;;5094409;28;19914;-76
2022/11/02 07:29:15;;;;;;;;;;;11.20;99.90;;;;;;5094880;28;19920;-75
2022/11/02 07:31:40;;;;;;;;;;;11.20;99.90;;;;;;5094650;28;19908;-75
2022/11/02 07:34:06;;;;;;;;;;;11.30;99.90;;;;;;5092746;28;20258;-75
2022/11/02 07:36:31;;;;;;;;;;;11.40;99.90;;;;;;5094805;28;19908;-76
2022/11/02 07:38:57;;;;;;;;;;;11.40;99.90;;;;;;5093021;28;19956;-75
2022/11/02 07:41:23;;;;;;;;;;;11.50;99.90;;;;;;5094315;28;19912;-75
2022/11/02 07:43:48;;;;;;;;;;;11.50;99.90;;;;;;5094646;28;20353;-76
2022/11/02 07:46:14;;;;;;;;;;;11.50;99.90;;;;;;5093984;28;19912;-75
2022/11/02 07:48:39;;;;;;;;;;;11.60;99.90;;;;;;5094600;28;19916;-75
2022/11/02 07:51:06;;;;;;;;;;;11.50;99.90;;;;;;5093955;28;20288;-75
2022/11/02 07:53:32;;;;;;;;;;;11.50;99.90;;;;;;5094200;28;19920;-75
2022/11/02 07:56:01;;;;;;;;;;;11.60;99.90;;;;;;5093235;28;19915;-75
2022/11/02 07:58:26;;;;;;;;;;;11.60;99.90;;;;;;5093745;28;19918;-75
2022/11/02 08:00:53;;;;;;;;;;;11.60;99.90;;;;;;5093845;28;19995;-75
2022/11/02 08:03:19;;;;;;;;;;;11.60;99.90;;;;;;5093971;28;19908;-75
2022/11/02 08:05:44;;;;;;;;;;;11.60;99.90;;;;;;5093627;28;19908;-75
2022/11/02 08:08:12;;;;;;;;;;;11.60;99.90;;;;;;5091586;28;19939;-75
2022/11/02 08:10:38;;;;;;;;;;;11.70;99.90;;;;;;5093897;28;19908;-75
2022/11/02 08:13:03;;;;;;;;;;;11.60;99.90;;;;;;5092090;28;19960;-75
2022/11/02 08:15:29;;;;;;;;;;;11.60;99.90;;;;;;5094022;28;19908;-75
2022/11/02 08:18:15;;;;;;;;;;;11.60;99.90;;;;;;5093171;28;20286;-77
2022/11/02 08:20:40;;;;;;;;;;;11.60;99.90;;;;;;5094030;28;19919;-76
2022/11/02 08:23:06;;;;;;;;;;;11.50;99.90;;;;;;5093361;28;19908;-75
2022/11/02 08:25:32;;;;;;;;;;;11.50;99.90;;;;;;5093891;28;19969;-76
2022/11/02 08:27:58;;;;;;;;;;;11.50;99.90;;;;;;5092979;28;19916;-77
2022/11/02 08:30:25;;;;;;;;;;;11.50;99.90;;;;;;5092167;28;19912;-79
2022/11/02 08:32:50;;;;;;;;;;;11.40;99.90;;;;;;5093335;28;20441;-80
2022/11/02 08:35:16;;;;;;;;;;;11.30;99.90;;;;;;5092893;28;19947;-83
2022/11/02 08:37:41;;;;;;;;;;;11.40;99.90;;;;;;5092251;28;19915;-81
2022/11/02 08:40:07;;;;;;;;;;;11.30;99.90;;;;;;5093629;28;19915;-82
2022/11/02 08:42:33;;;;;;;;;;;11.30;99.90;;;;;;5093646;28;19908;-80
2022/11/02 08:44:58;;;;;;;;;;;11.30;99.90;;;;;;5093098;28;19908;-77
2022/11/02 08:47:24;;;;;;;;;;;11.30;99.90;;;;;;5093394;28;19920;-77
2022/11/02 08:49:50;;;;;;;;;;;11.40;99.90;;;;;;5092026;28;19920;-76
2022/11/02 08:52:16;;;;;;;;;;;11.40;99.90;;;;;;5092763;28;19952;-75
2022/11/02 08:54:42;;;;;;;;;;;11.50;99.90;;;;;;5093443;28;19908;-76
2022/11/02 08:57:08;;;;;;;;;;;11.60;99.90;;;;;;5093024;28;20276;-75
2022/11/02 08:59:33;;;;;;;;;;;11.70;99.90;;;;;;5093239;28;20277;-75
2022/11/02 09:01:59;;;;;;;;;;;11.70;99.90;;;;;;5092784;28;20254;-75
2022/11/02 09:04:25;;;;;;;;;;;11.90;99.90;;;;;;5093022;28;19912;-75
2022/11/02 09:06:50;;;;;;;;;;;11.90;99.90;;;;;;5093061;28;20254;-74
2022/11/02 09:09:16;;;;;;;;;;;12.00;99.90;;;;;;5092669;28;19966;-75
2022/11/02 09:11:42;;;;;;;;;;;12.00;99.90;;;;;;5092103;28;19908;-74
2022/11/02 09:14:07;;;;;;;;;;;12.10;99.90;;;;;;5092818;28;20365;-74
2022/11/02 09:16:33;;;;;;;;;;;12.20;99.90;;;;;;5092052;28;19916;-74
2022/11/02 09:18:59;;;;;;;;;;;12.30;99.90;;;;;;5092405;28;19908;-75
2022/11/02 09:21:25;;;;;;;;;;;12.40;99.90;;;;;;5093131;28;19908;-74
2022/11/02 09:23:50;;;;;;;;;;;12.50;99.90;;;;;;5092807;28;20418;-75
2022/11/02 09:26:16;;;;;;;;;;;12.60;99.90;;;;;;5092376;28;19919;-75
2022/11/02 09:28:42;;;;;;;;;;;12.60;99.90;;;;;;5093054;28;19942;-75
2022/11/02 09:31:07;;;;;;;;;;;12.60;99.90;;;;;;5092577;28;19908;-75
2022/11/02 09:33:35;;;;;;;;;;;12.60;99.90;;;;;;5092771;28;19912;-75
2022/11/02 09:36:01;;;;;;;;;;;12.60;99.90;;;;;;5090997;28;19908;-75
2022/11/02 09:38:26;;;;;;;;;;;12.70;99.90;;;;;;5092593;28;20018;-75
2022/11/02 09:40:58;;;;;;;;;;;12.60;99.90;;;;;;5092999;28;20340;-76
2022/11/02 09:43:50;;;;;;;;;;;12.60;99.90;;;;;;5092974;28;19912;-75
2022/11/02 09:46:21;;;;;;;;;;;12.60;99.90;;;;;;5089211;28;19930;-75
2022/11/02 09:48:52;;;;;;;;;;;12.70;99.90;;;;;;5095329;28;20357;-75
2022/11/02 09:51:20;;;;;;;;;;;12.70;99.90;;;;;;5096431;28;20873;-76
2022/11/02 09:53:52;;;;;;;;;;;12.80;99.90;;;;;;5096958;28;19952;-76
2022/11/02 09:56:21;;;;;;;;;;;12.80;99.90;;;;;;5096372;28;19916;-73
2022/11/02 09:58:53;;;;;;;;;;;12.80;99.90;;;;;;5096751;28;19975;-74
2022/11/02 10:01:39;;;;;;;;;;;12.80;99.90;;;;;;5096055;28;19919;-74
2022/11/02 10:04:08;;;;;;;;;;;13.00;99.90;;;;;;5074375;28;19919;-75
2022/11/02 10:06:34;;;;;;;;;;;13.00;99.90;;;;;;5096510;28;19920;-76
2022/11/02 10:09:24;;;;;;;;;;;13.00;99.90;;;;;;5095853;28;20406;-75
2022/11/02 10:12:06;;;;;;;;;;;13.10;99.90;;;;;;5096592;28;19916;-75
2022/11/02 10:14:34;;;;;;;;;;;13.00;99.90;;;;;;5096550;28;19916;-75
2022/11/02 10:17:20;;;;;;;;;;;13.10;99.90;;;;;;5096365;28;19995;-75
2022/11/02 10:19:49;;;;;;;;;;;13.10;99.90;;;;;;5090131;28;19908;-75
2022/11/02 10:22:15;;;;;;;;;;;13.10;99.90;;;;;;5096749;28;20312;-75
2022/11/02 10:24:42;;;;;;;;;;;13.00;99.90;;;;;;5096124;28;19915;-74
2022/11/02 10:27:23;;;;;;;;;;;12.90;99.90;;;;;;5095447;28;20023;-75
2022/11/02 10:29:48;;;;;;;;;;;13.00;99.90;;;;;;5096305;28;20246;-75
2022/11/02 10:32:14;;;;;;;;;;;13.10;99.90;;;;;;5095439;28;19961;-75
2022/11/02 10:34:41;;;;;;;;;;;13.20;99.90;;;;;;5096292;28;20396;-75
2022/11/02 10:37:25;;;;;;;;;;;13.20;99.90;;;;;;5094597;28;20011;-75
2022/11/02 10:39:51;;;;;;;;;;;13.30;99.90;;;;;;5095947;28;19991;-74
2022/11/02 10:42:19;;;;;;;;;;;13.40;99.90;;;;;;5095284;28;20394;-75
2022/11/02 10:44:48;;;;;;;;;;;13.40;99.90;;;;;;5095659;28;20351;-74
2022/11/02 10:47:17;;;;;;;;;;;13.40;99.90;;;;;;5095186;28;20011;-75
2022/11/02 10:49:52;;;;;;;;;;;13.40;99.90;;;;;;5095430;28;19928;-75
2022/11/02 10:52:17;;;;;;;;;;;13.30;99.90;;;;;;5095120;28;20003;-75
2022/11/02 10:54:43;;;;;;;;;;;13.30;99.90;;;;;;5095707;28;20440;-75
2022/11/02 10:57:12;;;;;;;;;;;13.20;99.90;;;;;;5095202;28;19908;-82
2022/11/02 10:59:38;;;;;;;;;;;13.00;99.90;;;;;;5094179;28;19908;-82
2022/11/02 11:02:05;;;;;;;;;;;13.00;99.90;;;;;;5095247;28;19912;-82
2022/11/02 11:04:31;;;;;;;;;;;12.90;99.90;;;;;;5095547;28;20317;-82
2022/11/02 11:07:02;;;;;;;;;;;12.90;99.90;;;;;;5095129;28;19908;-80
2022/11/02 11:09:32;;;;;;;;;;;12.80;99.90;;;;;;5094730;28;19908;-81
2022/11/02 11:11:58;;;;;;;;;;;12.80;99.90;;;;;;5094804;28;19938;-81
2022/11/02 11:14:28;;;;;;;;;;;12.80;99.90;;;;;;5093637;28;19941;-81
2022/11/02 11:16:58;;;;;;;;;;;12.80;99.90;;;;;;5095163;28;19912;-82
2022/11/02 11:19:23;;;;;;;;;;;12.70;99.90;;;;;;5094721;28;20326;-83
2022/11/02 11:21:49;;;;;;;;;;;12.70;99.90;;;;;;5093558;28;20379;-83
2022/11/02 11:24:22;;;;;;;;;;;12.70;99.90;;;;;;5094248;28;19915;-82
2022/11/02 11:27:01;;;;;;;;;;;12.70;99.90;;;;;;5095226;28;20373;-80
2022/11/02 11:29:29;;;;;;;;;;;12.70;99.90;;;;;;5093265;28;19920;-80
2022/11/02 11:31:55;;;;;;;;;;;12.70;99.90;;;;;;5094930;28;19908;-79
2022/11/02 11:34:23;;;;;;;;;;;12.80;99.90;;;;;;5094493;28;20343;-76
2022/11/02 11:36:49;;;;;;;;;;;12.90;99.90;;;;;;5094894;28;19916;-75
2022/11/02 11:39:35;;;;;;;;;;;13.00;99.90;;;;;;5094275;28;20369;-74
2022/11/02 11:42:02;;;;;;;;;;;13.10;99.90;;;;;;5094245;28;19912;-74
2022/11/02 11:44:27;;;;;;;;;;;13.10;99.90;;;;;;5094107;28;20142;-74
2022/11/02 11:46:55;;;;;;;;;;;13.10;99.90;;;;;;5094366;28;19972;-73
2022/11/02 11:49:26;;;;;;;;;;;13.10;99.90;;;;;;5093782;28;19908;-74
2022/11/02 11:51:53;;;;;;;;;;;13.30;99.90;;;;;;5094230;28;19915;-75
2022/11/02 11:54:32;;;;;;;;;;;13.30;99.90;;;;;;5094460;28;19908;-74
2022/11/02 11:56:58;;;;;;;;;;;13.40;99.90;;;;;;5098142;28;19909;-74
2022/11/02 11:59:26;;;;;;;;;;;13.40;99.90;;;;;;5099550;28;19919;-76
2022/11/02 12:01:54;;;;;;;;;;;13.20;99.90;;;;;;5096553;28;19908;-77
2022/11/02 12:04:36;;;;;;;;;;;13.20;99.90;;;;;;5093468;28;19951;-77
2022/11/02 12:07:01;;;;;;;;;;;13.10;99.90;;;;;;5093943;28;19965;-76
2022/11/02 12:09:45;;;;;;;;;;;13.10;99.90;;;;;;5092800;28;19912;-76
2022/11/02 12:12:11;;;;;;;;;;;13.00;99.90;;;;;;5092387;28;20445;-75
2022/11/02 12:14:36;;;;;;;;;;;13.00;99.90;;;;;;5093433;28;19939;-75
2022/11/02 12:17:09;;;;;;;;;;;13.00;99.90;;;;;;5093255;28;19953;-75
2022/11/02 12:19:53;;;;;;;;;;;13.10;99.90;;;;;;5093337;28;20414;-74
2022/11/02 12:22:41;;;;;;;;;;;13.10;99.90;;;;;;5092903;28;19995;-74
2022/11/02 12:25:25;;;;;;;;;;;13.20;99.90;;;;;;5093185;28;19963;-76
2022/11/02 12:28:00;;;;;;;;;;;13.30;99.90;;;;;;5093579;28;20381;-75
2022/11/02 12:30:45;;;;;;;;;;;13.40;99.90;;;;;;5093186;28;19908;-77
2022/11/02 12:33:16;;;;;;;;;;;13.50;99.90;;;;;;5093054;28;20300;-76
2022/11/02 12:35:53;;;;;;;;;;;13.60;99.90;;;;;;5093739;28;20014;-76
2022/11/02 12:38:21;;;;;;;;;;;13.80;99.90;;;;;;5092481;28;19908;-76
2022/11/02 12:41:02;;;;;;;;;;;13.80;99.90;;;;;;5092808;28;19908;-76
2022/11/02 12:43:38;;;;;;;;;;;13.90;99.90;;;;;;5091981;28;19912;-76
2022/11/02 12:46:07;;;;;;;;;;;13.90;99.90;;;;;;5092868;28;19916;-77
2022/11/02 12:48:36;;;;;;;;;;;13.90;99.90;;;;;;5092864;28;20349;-76
2022/11/02 12:51:11;;;;;;;;;;;14.00;99.90;;;;;;5091798;28;20319;-77
2022/11/02 12:53:45;;;;;;;;;;;13.90;99.90;;;;;;5091572;28;19947;-76
2022/11/02 12:56:15;;;;;;;;;;;13.90;99.90;;;;;;5091881;28;20340;-76
2022/11/02 12:58:41;;;;;;;;;;;13.90;99.90;;;;;;5092740;28;19912;-76
2022/11/02 13:01:12;;;;;;;;;;;13.90;99.90;;;;;;5092521;28;19908;-74
2022/11/02 13:03:40;;;;;;;;;;;14.00;99.90;;;;;;5092576;28;20375;-75
2022/11/02 13:06:09;;;;;;;;;;;14.00;99.90;;;;;;5092566;28;19912;-74
2022/11/02 13:08:38;;;;;;;;;;;13.90;99.90;;;;;;5092562;28;19916;-75
2022/11/02 13:11:07;;;;;;;;;;;13.90;99.90;;;;;;5092578;28;19974;-75
2022/11/02 13:13:37;;;;;;;;;;;13.90;99.90;;;;;;5092221;28;19908;-74
2022/11/02 13:16:04;;;;;;;;;;;14.00;99.90;;;;;;5092592;28;19909;-75
2022/11/02 13:18:33;;;;;;;;;;;14.00;99.90;;;;;;5092037;28;20015;-75
2022/11/02 13:21:01;;;;;;;;;;;14.00;99.90;;;;;;5092001;28;19908;-75
2022/11/02 13:23:32;;;;;;;;;;;14.00;99.90;;;;;;5091065;28;19919;-74
2022/11/02 13:26:03;;;;;;;;;;;13.90;99.90;;;;;;5091095;28;19991;-74
2022/11/02 13:28:47;;;;;;;;;;;13.90;99.90;;;;;;5091882;28;20596;-74
2022/11/02 13:31:19;;;;;;;;;;;13.90;99.90;;;;;;5091570;28;19991;-75
2022/11/02 13:33:50;;;;;;;;;;;13.90;99.90;;;;;;5091220;28;20372;-75
2022/11/02 13:36:15;;;;;;;;;;;13.90;99.90;;;;;;5091240;28;20011;-75
2022/11/02 13:38:41;;;;;;;;;;;13.90;99.90;;;;;;5092236;28;19951;-75
2022/11/02 13:41:09;;;;;;;;;;;13.90;99.90;;;;;;5091873;28;20274;-74
2022/11/02 13:43:56;;;;;;;;;;;13.90;99.90;;;;;;5091704;28;19908;-74
2022/11/02 13:46:34;;;;;;;;;;;13.80;99.90;;;;;;5091649;28;19908;-74
2022/11/02 13:49:11;;;;;;;;;;;13.80;99.90;;;;;;5092195;28;19961;-74
2022/11/02 13:51:39;;;;;;;;;;;13.70;99.90;;;;;;5092075;28;19920;-74
2022/11/02 13:54:15;;;;;;;;;;;13.70;99.90;;;;;;5091862;28;20381;-74
2022/11/02 13:56:41;;;;;;;;;;;13.70;99.90;;;;;;5091993;28;19908;-75
2022/11/02 13:59:08;;;;;;;;;;;13.70;99.90;;;;;;5090998;28;19966;-75
2022/11/02 14:01:36;;;;;;;;;;;13.70;99.90;;;;;;5091614;28;19927;-74
2022/11/02 14:04:10;;;;;;;;;;;13.70;99.90;;;;;;5091945;28;19931;-74
2022/11/02 14:06:47;;;;;;;;;;;13.60;99.90;;;;;;5091596;28;19908;-74
2022/11/02 14:09:27;;;;;;;;;;;13.60;99.90;;;;;;5091573;28;19916;-75
2022/11/02 14:12:09;;;;;;;;;;;13.60;99.90;;;;;;5091994;28;20289;-74
2022/11/02 14:14:35;;;;;;;;;;;13.60;99.90;;;;;;5091034;28;19908;-75
2022/11/02 14:17:11;;;;;;;;;;;13.50;99.90;;;;;;5091774;28;20334;-74
2022/11/02 14:20:03;;;;;;;;;;;13.50;99.90;;;;;;5091831;28;19947;-74
2022/11/02 14:22:30;;;;;;;;;;;13.50;99.90;;;;;;5091442;28;19943;-74
2022/11/02 14:25:06;;;;;;;;;;;13.50;99.90;;;;;;5091315;28;20276;-75
2022/11/02 14:27:31;;;;;;;;;;;13.40;99.90;;;;;;5091282;28;19920;-74
2022/11/02 14:29:57;;;;;;;;;;;13.40;99.90;;;;;;5091446;28;19995;-75
2022/11/02 14:32:39;;;;;;;;;;;13.40;99.90;;;;;;5091437;28;19919;-75
2022/11/02 14:35:23;;;;;;;;;;;13.40;99.90;;;;;;5094772;28;19908;-75
2022/11/02 14:37:55;;;;;;;;;;;13.40;99.90;;;;;;5095421;28;19908;-74
2022/11/02 14:40:38;;;;;;;;;;;13.40;99.90;;;;;;5094477;28;20312;-74
2022/11/02 14:43:23;;;;;;;;;;;13.40;99.90;;;;;;5095517;28;20250;-74
2022/11/02 14:45:51;;;;;;;;;;;13.40;99.90;;;;;;5094278;28;20273;-74
2022/11/02 14:48:17;;;;;;;;;;;13.40;99.90;;;;;;5095104;28;19920;-74